Piedmont Triad International Airport
KGSO : now visible

Aeroporto :











RITROVATECI SU...

 
LOGIN :

Iscrizione | Disclaimer

   EN    FR    IT 

 









Sommario :    VFR   VFR Marginale   IFR   IFR Intensivo   IFR Molto Intensivo
Visibilità : 
Base nubi : 
>= 8 km
>= 3000ft
5 / 8 km
1000 / 3000 ft
1500m / 5 km
500 / 1000 ft
800 / 1500m
200 / 500 ft
< 800m
< 200 ft
Simboli :   Temporali  Nebbia  Neve Forte  Precipitazioni Forti  Vento > 20 kt







- Altitudine del aeroporto : 925 ft
- Codice IATA : GSO


KGSO - Piedmont Triad International

ULTIMO METAR :
  • 212354Z 29010KT 10SM BKN065 BKN090 OVC200 11/05 A2975 RMK AO2 RAB08E34 SLP075 P0000 60000 T01060050 10150 20106 53010

METARs OBSOLETI :
  • 212254Z 29014KT 10SM FEW035 BKN065 OVC200 12/04 A2975 RMK AO2 PK WND 30026/2243 SLP073 T01170044
  • 212154Z 29015KT 10SM FEW035 SCT080 BKN250 13/03 A2973 RMK AO2 SLP065 T01330033

TAF KGSO
Valido dal 22 a 00 ore il 23 a 00 ore UTC


212351Z 2200/2224 31008G16KT P6SM OVC060
FM220200 31008KT P6SM SCT060
FM221400 28015G28KT P6SM FEW050
FIR KZTL / America del Nord



MetMap, La meteo Aeronautica in un colpo d'occhio ! - Copyright ORBIFLY Dicembre 2007 - Disclaimer

ORBIFLY MET'MAP TEAM :

Programmazione e sviluppo : Alexandra Zaïnal
Concezione e sviluppo : Baudouin d'Aumeries
Co-Programmazione e sviluppo : Marc-Olivier Méhu
Supporto tecnico e logistico : Manuel Goepfert
Aiuto per la traduzione : Arnaldo La Scala

Contatto : metmap@orbifly.com




FONTI E CREDITI :

   NOAA       Earth
Advisory